createdAt,value
2022-09-03T00:01:25.173Z,18.64
2022-09-03T00:03:31.154Z,18.61
2022-09-03T00:05:40.041Z,18.60
2022-09-03T00:07:49.168Z,18.57
2022-09-03T00:09:57.099Z,18.55
2022-09-03T00:12:04.566Z,18.50
2022-09-03T00:14:10.877Z,18.48
2022-09-03T00:16:16.065Z,18.43
2022-09-03T00:18:22.356Z,18.41
2022-09-03T00:20:29.367Z,18.38
2022-09-03T00:22:37.018Z,18.34
2022-09-03T00:24:42.224Z,18.31
2022-09-03T00:26:46.992Z,18.27
2022-09-03T00:28:53.835Z,18.24
2022-09-03T00:31:06.737Z,18.22
2022-09-03T00:33:13.213Z,18.22
2022-09-03T00:35:21.747Z,18.22
2022-09-03T00:37:24.757Z,18.22
2022-09-03T00:39:31.218Z,18.22
2022-09-03T00:41:38.642Z,18.21
2022-09-03T00:44:01.412Z,18.19
2022-09-03T00:46:09.534Z,18.17
2022-09-03T00:48:19.046Z,18.16
2022-09-03T00:50:33.298Z,18.17
2022-09-03T00:52:47.396Z,18.15
2022-09-03T00:54:57.191Z,18.13
2022-09-03T00:57:08.049Z,18.14
2022-09-03T00:59:22.804Z,18.15
2022-09-03T01:01:30.462Z,18.16
2022-09-03T01:03:37.936Z,18.16
2022-09-03T01:05:55.055Z,18.17
2022-09-03T01:08:11.775Z,18.17
2022-09-03T01:10:26.159Z,18.17
2022-09-03T01:12:36.210Z,18.16
2022-09-03T01:14:47.407Z,18.15
2022-09-03T01:16:53.416Z,18.15
2022-09-03T01:19:05.392Z,18.17
2022-09-03T01:21:29.562Z,18.21
2022-09-03T01:24:07.387Z,18.26
2022-09-03T01:26:23.348Z,18.28
2022-09-03T01:28:45.330Z,18.32
2022-09-03T01:30:57.132Z,18.37
2022-09-03T01:33:06.343Z,18.39
2022-09-03T01:35:16.377Z,18.39
2022-09-03T01:37:28.338Z,18.42
2022-09-03T01:39:35.993Z,18.47
2022-09-03T01:42:05.564Z,18.50
2022-09-03T01:44:16.778Z,18.54
2022-09-03T01:46:23.003Z,18.53
2022-09-03T01:48:41.816Z,18.52
2022-09-03T01:50:47.751Z,18.49
2022-09-03T01:52:55.004Z,18.48
2022-09-03T01:55:07.212Z,18.51
2022-09-03T01:57:36.680Z,18.45
2022-09-03T01:59:46.722Z,18.44
2022-09-03T02:01:56.877Z,18.41
2022-09-03T02:04:00.386Z,18.38
2022-09-03T02:06:07.152Z,18.39
2022-09-03T02:08:11.675Z,18.40
2022-09-03T02:10:17.152Z,18.41
2022-09-03T02:12:21.676Z,18.47
2022-09-03T02:14:25.708Z,18.52
2022-09-03T02:16:33.042Z,18.57
2022-09-03T02:18:41.357Z,18.62
2022-09-03T02:20:44.745Z,18.64
2022-09-03T02:22:48.851Z,18.69
2022-09-03T02:24:52.148Z,18.72
2022-09-03T02:26:55.793Z,18.76
2022-09-03T02:28:59.004Z,18.78
2022-09-03T02:31:02.787Z,18.77
2022-09-03T02:33:07.312Z,18.82
2022-09-03T02:35:11.043Z,18.83
2022-09-03T02:37:18.267Z,18.83
2022-09-03T02:39:21.177Z,18.79
2022-09-03T02:41:27.336Z,18.80
2022-09-03T02:43:36.115Z,18.81
2022-09-03T02:45:44.262Z,18.85
2022-09-03T02:47:49.333Z,18.86
2022-09-03T02:49:53.666Z,18.86
2022-09-03T02:52:00.785Z,18.83
2022-09-03T02:54:03.960Z,18.84
2022-09-03T02:56:07.538Z,18.82
2022-09-03T02:58:10.577Z,18.80
2022-09-03T03:00:15.078Z,18.76
2022-09-03T03:02:18.132Z,18.73
2022-09-03T03:04:21.317Z,18.68
2022-09-03T03:06:25.663Z,18.70
2022-09-03T03:08:30.283Z,18.70
2022-09-03T03:10:33.255Z,18.73
2022-09-03T03:12:36.403Z,18.74
2022-09-03T03:14:39.403Z,18.74
2022-09-03T03:16:42.511Z,18.75
2022-09-03T03:18:47.317Z,18.73
2022-09-03T03:20:50.212Z,18.68
2022-09-03T03:22:54.569Z,18.67
2022-09-03T03:24:57.888Z,18.68
2022-09-03T03:27:00.894Z,18.67
2022-09-03T03:29:05.714Z,18.72
2022-09-03T03:31:09.364Z,18.72
2022-09-03T03:33:12.452Z,18.72
2022-09-03T03:35:15.804Z,18.72
2022-09-03T03:37:18.865Z,18.72
2022-09-03T03:39:23.202Z,18.72
2022-09-03T03:41:28.212Z,18.72
2022-09-03T03:43:33.564Z,18.71
2022-09-03T03:45:36.584Z,18.68
2022-09-03T03:47:39.621Z,18.67
2022-09-03T03:49:42.752Z,18.64
2022-09-03T03:51:45.764Z,18.63
2022-09-03T03:53:48.764Z,18.64
2022-09-03T03:56:04.467Z,18.62
2022-09-03T03:58:07.450Z,18.64
2022-09-03T04:00:11.385Z,18.60
2022-09-03T04:02:20.025Z,18.54
2022-09-03T04:04:23.064Z,18.53
2022-09-03T04:06:26.017Z,18.52
2022-09-03T04:08:29.579Z,18.49
2022-09-03T04:10:32.612Z,18.49
2022-09-03T04:12:36.909Z,18.49
2022-09-03T04:14:39.983Z,18.46
2022-09-03T04:16:43.278Z,18.44
2022-09-03T04:18:47.220Z,18.44
2022-09-03T04:20:50.446Z,18.42
2022-09-03T04:22:53.460Z,18.41
2022-09-03T04:24:56.447Z,18.39
2022-09-03T04:26:59.503Z,18.39
2022-09-03T04:29:05.577Z,18.39
2022-09-03T04:31:09.588Z,18.37
2022-09-03T04:33:16.169Z,18.38
2022-09-03T04:35:20.454Z,18.36
2022-09-03T04:37:23.467Z,18.34
2022-09-03T04:39:26.883Z,18.34
2022-09-03T04:41:31.077Z,18.31
2022-09-03T04:43:34.142Z,18.33
2022-09-03T04:45:38.486Z,18.34
2022-09-03T04:47:42.225Z,18.33
2022-09-03T04:49:45.203Z,18.32
2022-09-03T04:51:48.178Z,18.31
2022-09-03T04:53:56.560Z,18.32
2022-09-03T04:55:59.660Z,18.29
2022-09-03T04:58:02.904Z,18.23
2022-09-03T05:00:10.581Z,18.17
2022-09-03T05:02:15.537Z,18.15
2022-09-03T05:04:19.156Z,18.17
2022-09-03T05:06:22.129Z,18.21
2022-09-03T05:08:26.493Z,18.23
2022-09-03T05:10:29.759Z,18.27
2022-09-03T05:12:33.378Z,18.30
2022-09-03T05:14:36.547Z,18.35
2022-09-03T05:16:39.907Z,18.36
2022-09-03T05:18:45.077Z,18.36
2022-09-03T05:20:48.207Z,18.29
2022-09-03T05:22:51.225Z,18.31
2022-09-03T05:24:56.207Z,18.34
2022-09-03T05:26:59.325Z,18.36
2022-09-03T05:29:07.568Z,18.40
2022-09-03T05:31:12.362Z,18.41
2022-09-03T05:33:16.538Z,18.46
2022-09-03T05:35:25.358Z,18.48
2022-09-03T05:37:28.977Z,18.51
2022-09-03T05:39:32.157Z,18.50
2022-09-03T05:41:35.404Z,18.49
2022-09-03T05:43:39.149Z,18.52
2022-09-03T05:45:42.189Z,18.54
2022-09-03T05:47:45.233Z,18.59
2022-09-03T05:49:48.254Z,18.62
2022-09-03T05:51:55.026Z,18.65
2022-09-03T05:53:59.000Z,18.69
2022-09-03T05:56:03.147Z,18.75
2022-09-03T05:58:06.093Z,18.83
2022-09-03T06:00:10.911Z,19.04
2022-09-03T06:02:15.175Z,19.47
2022-09-03T06:04:18.269Z,19.84
2022-09-03T06:06:26.504Z,20.09
2022-09-03T06:08:30.982Z,20.32
2022-09-03T06:10:40.697Z,20.48
2022-09-03T06:12:45.018Z,20.73
2022-09-03T06:14:48.052Z,20.78
2022-09-03T06:16:52.849Z,20.79
2022-09-03T06:18:56.416Z,20.75
2022-09-03T06:21:01.249Z,20.64
2022-09-03T06:23:04.302Z,20.53
2022-09-03T06:25:09.831Z,20.48
2022-09-03T06:27:13.064Z,20.47
2022-09-03T06:29:19.839Z,20.47
2022-09-03T06:31:23.783Z,20.44
2022-09-03T06:33:26.834Z,20.43
2022-09-03T06:35:29.863Z,20.44
2022-09-03T06:37:41.053Z,20.45
2022-09-03T06:39:44.127Z,20.44
2022-09-03T06:41:52.002Z,20.43
2022-09-03T06:44:03.668Z,20.45
2022-09-03T06:46:08.821Z,20.52
2022-09-03T06:48:11.849Z,20.58
2022-09-03T06:50:15.211Z,20.62
2022-09-03T06:52:18.251Z,20.66
2022-09-03T06:54:21.222Z,20.63
2022-09-03T06:56:27.023Z,20.61
2022-09-03T06:58:32.712Z,20.61
2022-09-03T07:00:35.781Z,20.67
2022-09-03T07:02:44.822Z,20.72
2022-09-03T07:04:49.850Z,20.82
2022-09-03T07:06:52.849Z,20.92
2022-09-03T07:08:59.722Z,20.98
2022-09-03T07:11:05.352Z,21.03
2022-09-03T07:13:08.352Z,21.09
2022-09-03T07:15:13.009Z,21.16
2022-09-03T07:17:16.416Z,21.24
2022-09-03T07:19:19.724Z,21.32
2022-09-03T07:21:24.118Z,21.39
2022-09-03T07:23:27.265Z,21.48
2022-09-03T07:25:31.417Z,21.55
2022-09-03T07:27:35.840Z,21.63
2022-09-03T07:29:38.852Z,21.66
2022-09-03T07:31:44.406Z,21.69
2022-09-03T07:33:47.747Z,21.71
2022-09-03T07:35:50.731Z,21.74
2022-09-03T07:37:55.125Z,21.76
2022-09-03T07:39:58.331Z,21.81
2022-09-03T07:42:02.636Z,21.86
2022-09-03T07:44:06.564Z,21.89
2022-09-03T07:46:13.056Z,21.91
2022-09-03T07:48:17.969Z,21.89
2022-09-03T07:50:21.102Z,21.89
2022-09-03T07:52:24.186Z,21.88
2022-09-03T07:54:27.919Z,21.91
2022-09-03T07:56:32.054Z,21.99
2022-09-03T07:58:36.356Z,22.10
2022-09-03T08:00:39.617Z,22.36
2022-09-03T08:02:46.123Z,22.70
2022-09-03T08:04:50.859Z,23.01
2022-09-03T08:06:55.646Z,23.22
2022-09-03T08:09:04.959Z,23.32
2022-09-03T08:11:10.789Z,23.50
2022-09-03T08:13:13.808Z,23.58
2022-09-03T08:15:16.878Z,23.57
2022-09-03T08:17:19.886Z,23.57
2022-09-03T08:19:23.230Z,23.60
2022-09-03T08:21:28.562Z,23.65
2022-09-03T08:23:31.655Z,23.74
2022-09-03T08:25:34.661Z,23.94
2022-09-03T08:27:37.680Z,24.06
2022-09-03T08:29:42.043Z,24.06
2022-09-03T08:31:45.443Z,24.13
2022-09-03T08:33:50.787Z,24.31
2022-09-03T08:35:54.995Z,24.42
2022-09-03T08:38:05.286Z,24.40
2022-09-03T08:40:10.624Z,24.47
2022-09-03T08:42:46.462Z,24.58
2022-09-03T08:44:51.702Z,24.63
2022-09-03T08:46:58.060Z,24.66
2022-09-03T08:49:01.817Z,24.71
2022-09-03T08:51:04.979Z,24.79
2022-09-03T08:53:15.961Z,24.87
2022-09-03T08:55:23.195Z,25.06
2022-09-03T08:57:26.745Z,25.34
2022-09-03T08:59:33.249Z,25.55
2022-09-03T09:01:45.390Z,25.52
2022-09-03T09:03:56.761Z,25.43
2022-09-03T09:06:08.047Z,25.45
2022-09-03T09:08:18.025Z,25.63
2022-09-03T09:10:25.356Z,25.63
2022-09-03T09:12:42.788Z,25.52
2022-09-03T09:14:53.513Z,25.44
2022-09-03T09:17:02.320Z,25.38
2022-09-03T09:19:14.490Z,25.29
2022-09-03T09:21:22.597Z,25.22
2022-09-03T09:23:31.413Z,25.20
2022-09-03T09:25:39.130Z,25.20
2022-09-03T09:27:51.743Z,25.24
2022-09-03T09:29:56.345Z,25.24
2022-09-03T09:31:59.566Z,25.29
2022-09-03T09:34:06.761Z,25.45
2022-09-03T09:36:13.565Z,25.59
2022-09-03T09:38:16.844Z,25.71
2022-09-03T09:40:32.190Z,25.82
2022-09-03T09:42:35.157Z,25.89
2022-09-03T09:44:39.010Z,25.86
2022-09-03T09:46:42.921Z,25.75
2022-09-03T09:48:50.903Z,25.65
2022-09-03T09:51:06.068Z,25.37
2022-09-03T09:53:14.766Z,25.37
2022-09-03T09:55:20.322Z,25.72
2022-09-03T09:57:26.356Z,26.00
2022-09-03T09:59:29.471Z,26.20
2022-09-03T10:01:33.194Z,26.46
2022-09-03T10:03:36.593Z,26.46
2022-09-03T10:05:40.639Z,26.30
2022-09-03T10:07:43.853Z,26.16
2022-09-03T10:09:47.053Z,26.00
2022-09-03T10:11:52.266Z,25.78
2022-09-03T10:13:57.464Z,25.65
2022-09-03T10:16:04.554Z,25.81
2022-09-03T10:18:12.337Z,25.92
2022-09-03T10:20:31.176Z,25.82
2022-09-03T10:22:38.989Z,25.77
2022-09-03T10:25:00.212Z,25.93
2022-09-03T10:27:03.296Z,25.87
2022-09-03T10:29:08.820Z,25.78
2022-09-03T10:31:26.845Z,25.98
2022-09-03T10:33:33.495Z,26.08
2022-09-03T10:35:42.074Z,26.27
2022-09-03T10:37:50.859Z,26.32
2022-09-03T10:40:02.304Z,26.13
2022-09-03T10:42:14.890Z,26.07
2022-09-03T10:44:35.601Z,25.95
2022-09-03T10:46:46.449Z,25.97
2022-09-03T10:49:16.012Z,26.02
2022-09-03T10:51:21.546Z,26.06
2022-09-03T10:53:53.572Z,26.14
2022-09-03T10:56:01.511Z,26.24
2022-09-03T10:58:15.823Z,26.42
2022-09-03T11:00:22.347Z,26.44
2022-09-03T11:02:55.246Z,26.43
2022-09-03T11:05:02.861Z,26.53
2022-09-03T11:07:09.049Z,26.64
2022-09-03T11:09:16.599Z,26.58
2022-09-03T11:11:26.508Z,26.59
2022-09-03T11:13:35.413Z,26.57
2022-09-03T11:15:42.533Z,26.51
2022-09-03T11:17:56.790Z,26.52
2022-09-03T11:20:13.005Z,26.65
2022-09-03T11:22:20.981Z,26.64
2022-09-03T11:24:26.648Z,26.63
2022-09-03T11:26:30.095Z,26.63
2022-09-03T11:28:42.286Z,26.60
2022-09-03T11:30:58.486Z,26.57
2022-09-03T11:33:07.277Z,26.56
2022-09-03T11:35:16.273Z,26.54
2022-09-03T11:37:22.433Z,26.53
2022-09-03T11:39:35.735Z,26.56
2022-09-03T11:41:39.738Z,26.56
2022-09-03T11:43:44.061Z,26.57
2022-09-03T11:45:47.164Z,26.55
2022-09-03T11:47:52.239Z,26.54
2022-09-03T11:50:06.947Z,26.56
2022-09-03T11:52:10.732Z,26.57
2022-09-03T11:54:27.097Z,26.60
2022-09-03T11:56:31.424Z,26.57
2022-09-03T11:58:36.453Z,26.54
2022-09-03T12:00:41.097Z,26.52
2022-09-03T12:02:46.395Z,26.51
2022-09-03T12:04:56.180Z,26.51
2022-09-03T12:07:20.141Z,26.54
2022-09-03T12:09:36.977Z,26.56
2022-09-03T12:11:47.663Z,26.57
2022-09-03T12:13:55.153Z,26.52
2022-09-03T12:16:39.429Z,26.34
2022-09-03T12:18:43.734Z,26.21
2022-09-03T12:20:50.825Z,26.06
2022-09-03T12:25:12.071Z,25.86
2022-09-03T12:27:19.567Z,25.79
2022-09-03T12:29:27.897Z,25.70
2022-09-03T12:31:32.967Z,25.60
2022-09-03T12:33:35.977Z,25.53
2022-09-03T12:38:04.933Z,25.42
2022-09-03T12:40:17.926Z,25.35
2022-09-03T12:42:26.272Z,25.31
2022-09-03T12:44:31.417Z,25.28
2022-09-03T12:46:35.109Z,25.22
2022-09-03T12:48:40.301Z,25.18
2022-09-03T12:50:56.198Z,25.13
2022-09-03T12:53:01.257Z,24.99
2022-09-03T12:55:09.832Z,24.96
2022-09-03T12:57:14.251Z,24.96
2022-09-03T12:59:21.466Z,24.94
2022-09-03T13:01:26.611Z,24.91
2022-09-03T13:03:31.972Z,24.89
2022-09-03T13:05:42.837Z,24.88
2022-09-03T13:07:47.739Z,24.86
2022-09-03T13:09:51.100Z,24.85
2022-09-03T13:11:55.688Z,24.84
2022-09-03T13:14:05.404Z,24.81
2022-09-03T13:16:21.156Z,24.71
2022-09-03T13:18:28.799Z,24.50
2022-09-03T13:20:35.993Z,24.34
2022-09-03T13:22:48.017Z,24.15
2022-09-03T13:25:00.842Z,23.86
2022-09-03T13:27:10.355Z,23.66
2022-09-03T13:29:39.626Z,23.21
2022-09-03T13:31:46.527Z,22.69
2022-09-03T13:33:52.690Z,22.35
2022-09-03T13:36:01.412Z,22.03
2022-09-03T13:38:10.374Z,21.88
2022-09-03T13:40:20.512Z,21.79
2022-09-03T13:42:29.332Z,21.82
2022-09-03T13:44:38.832Z,21.81
2022-09-03T13:46:45.961Z,21.75
2022-09-03T13:49:07.382Z,21.76
2022-09-03T13:51:13.244Z,21.85
2022-09-03T13:53:22.725Z,21.98
2022-09-03T13:55:30.721Z,22.12
2022-09-03T13:57:39.856Z,22.21
2022-09-03T13:59:49.222Z,22.36
2022-09-03T14:02:02.144Z,22.47
2022-09-03T14:04:05.335Z,22.59
2022-09-03T14:06:14.493Z,22.65
2022-09-03T14:08:25.162Z,22.72
2022-09-03T14:10:35.212Z,22.82
2022-09-03T14:12:44.263Z,22.87
2022-09-03T14:14:54.856Z,22.96
2022-09-03T14:17:01.546Z,23.03
2022-09-03T14:19:07.544Z,23.09
2022-09-03T14:21:14.706Z,23.11
2022-09-03T14:23:29.214Z,23.12
2022-09-03T14:25:32.597Z,23.19
2022-09-03T14:27:36.601Z,23.31
2022-09-03T14:29:52.787Z,23.39
2022-09-03T14:32:15.445Z,23.38
2022-09-03T14:34:25.604Z,23.37
2022-09-03T14:36:36.753Z,23.19
2022-09-03T14:38:52.804Z,23.06
2022-09-03T14:41:05.807Z,22.99
2022-09-03T14:43:17.400Z,22.94
2022-09-03T14:45:45.432Z,22.88
2022-09-03T14:48:02.253Z,22.87
2022-09-03T14:50:13.874Z,22.84
2022-09-03T14:52:29.745Z,22.83
2022-09-03T14:54:51.997Z,22.83
2022-09-03T14:57:07.472Z,22.78
2022-09-03T14:59:25.583Z,22.77
2022-09-03T15:01:39.740Z,22.75
2022-09-03T15:04:34.435Z,22.70
2022-09-03T15:06:44.340Z,22.66
2022-09-03T15:09:09.260Z,22.67
2022-09-03T15:11:17.958Z,22.67
2022-09-03T15:13:22.426Z,22.67
2022-09-03T15:15:33.699Z,22.64
2022-09-03T15:17:57.535Z,22.67
2022-09-03T15:20:12.140Z,22.66
2022-09-03T15:22:21.161Z,22.65
2022-09-03T15:24:31.082Z,22.66
2022-09-03T15:26:48.575Z,22.68
2022-09-03T15:29:01.824Z,22.67
2022-09-03T15:31:13.619Z,22.61
2022-09-03T15:33:24.748Z,22.58
2022-09-03T15:35:41.229Z,22.55
2022-09-03T15:37:47.108Z,22.54
2022-09-03T15:40:00.693Z,22.53
2022-09-03T15:42:09.201Z,22.54
2022-09-03T15:44:19.167Z,22.56
2022-09-03T15:46:38.400Z,22.58
2022-09-03T15:48:50.496Z,22.57
2022-09-03T15:50:57.232Z,22.58
2022-09-03T15:53:04.990Z,22.58
2022-09-03T15:55:10.289Z,22.59
2022-09-03T15:57:17.702Z,22.60
2022-09-03T15:59:23.682Z,22.61
2022-09-03T16:01:44.770Z,22.63
2022-09-03T16:04:01.158Z,22.65
2022-09-03T16:06:07.775Z,22.66
2022-09-03T16:08:22.104Z,22.68
2022-09-03T16:10:36.800Z,22.67
2022-09-03T16:12:46.558Z,22.67
2022-09-03T16:14:55.301Z,22.64
2022-09-03T16:17:02.995Z,22.63
2022-09-03T16:19:12.133Z,22.63
2022-09-03T16:21:23.753Z,22.61
2022-09-03T16:23:29.866Z,22.58
2022-09-03T16:25:38.602Z,22.55
2022-09-03T16:27:47.595Z,22.54
2022-09-03T16:30:03.445Z,22.51
2022-09-03T16:32:26.946Z,22.49
2022-09-03T16:34:37.839Z,22.47
2022-09-03T16:36:45.778Z,22.46
2022-09-03T16:38:54.248Z,22.44
2022-09-03T16:41:00.504Z,22.41
2022-09-03T16:43:23.812Z,22.40
2022-09-03T16:45:36.423Z,22.37
2022-09-03T16:47:55.570Z,22.36
2022-09-03T16:50:09.701Z,22.31
2022-09-03T16:52:18.358Z,22.26
2022-09-03T16:54:33.748Z,22.22
2022-09-03T16:56:51.003Z,22.17
2022-09-03T16:58:59.131Z,22.16
2022-09-03T17:01:12.184Z,22.15
2022-09-03T17:03:41.685Z,22.13
2022-09-03T17:06:22.379Z,22.12
2022-09-03T17:08:31.664Z,22.08
2022-09-03T17:10:42.429Z,22.05
2022-09-03T17:12:51.110Z,22.04
2022-09-03T17:15:24.500Z,22.01
2022-09-03T17:17:49.081Z,21.99
2022-09-03T17:19:54.951Z,21.96
2022-09-03T17:22:10.101Z,21.92
2022-09-03T17:24:35.942Z,21.89
2022-09-03T17:26:52.036Z,21.87
2022-09-03T17:29:04.993Z,21.85
2022-09-03T17:31:16.117Z,21.83
2022-09-03T17:33:48.087Z,21.81
2022-09-03T17:35:56.686Z,21.79
2022-09-03T17:38:09.426Z,21.75
2022-09-03T17:40:24.079Z,21.73
2022-09-03T17:42:33.080Z,21.73
2022-09-03T17:44:47.767Z,21.73
2022-09-03T17:47:00.395Z,21.69
2022-09-03T17:49:04.678Z,21.61
2022-09-03T17:51:12.409Z,21.56
2022-09-03T17:53:24.756Z,21.52
2022-09-03T17:55:32.744Z,21.48
2022-09-03T17:57:41.660Z,21.45
2022-09-03T17:59:48.317Z,21.40
2022-09-03T18:01:54.428Z,21.34
2022-09-03T18:04:04.943Z,21.30
2022-09-03T18:06:10.695Z,21.28
2022-09-03T18:08:17.483Z,21.28
2022-09-03T18:10:27.002Z,21.26
2022-09-03T18:12:38.903Z,21.24
2022-09-03T18:14:47.229Z,21.22
2022-09-03T18:16:56.060Z,21.19
2022-09-03T18:19:02.913Z,21.18
2022-09-03T18:21:31.290Z,21.14
2022-09-03T18:23:59.945Z,21.09
2022-09-03T18:26:25.505Z,21.04
2022-09-03T18:28:52.674Z,21.02
2022-09-03T18:31:13.487Z,21.01
2022-09-03T18:33:37.370Z,21.01
2022-09-03T18:35:58.223Z,21.01
2022-09-03T18:38:21.187Z,21.00
2022-09-03T18:40:47.031Z,20.97
2022-09-03T18:43:17.945Z,20.91
2022-09-03T18:46:17.600Z,20.88
2022-09-03T18:48:30.595Z,20.85
2022-09-03T18:50:55.425Z,20.83
2022-09-03T18:53:18.616Z,20.80
2022-09-03T18:55:43.930Z,20.79
2022-09-03T18:58:13.704Z,20.78
2022-09-03T19:00:34.633Z,20.74
2022-09-03T19:03:01.686Z,20.69
2022-09-03T19:05:31.362Z,20.66
2022-09-03T19:08:00.280Z,20.63
2022-09-03T19:10:27.055Z,20.59
2022-09-03T19:13:17.365Z,20.55
2022-09-03T19:15:43.336Z,20.53
2022-09-03T19:18:23.502Z,20.54
2022-09-03T19:20:47.543Z,20.54
2022-09-03T19:23:08.314Z,20.52
2022-09-03T19:25:30.836Z,20.51
2022-09-03T19:27:59.913Z,20.48
2022-09-03T19:30:25.052Z,20.46
2022-09-03T19:32:54.886Z,20.43
2022-09-03T19:35:27.896Z,20.40
2022-09-03T19:37:52.164Z,20.39
2022-09-03T19:40:36.143Z,20.38
2022-09-03T19:43:06.057Z,20.39
2022-09-03T19:45:33.670Z,20.38
2022-09-03T19:48:04.090Z,20.37
2022-09-03T19:50:32.119Z,20.34
2022-09-03T19:52:59.538Z,20.31
2022-09-03T19:55:21.217Z,20.29
2022-09-03T19:57:42.242Z,20.27
2022-09-03T20:00:04.277Z,20.26
2022-09-03T20:02:34.010Z,20.25
2022-09-03T20:04:58.709Z,20.25
2022-09-03T20:07:21.830Z,20.27
2022-09-03T20:09:48.203Z,20.24
2022-09-03T20:11:52.407Z,20.23
2022-09-03T20:14:14.758Z,20.23
2022-09-03T20:16:24.733Z,20.21
2022-09-03T20:18:40.077Z,20.19
2022-09-03T20:20:47.489Z,20.19
2022-09-03T20:22:54.873Z,20.19
2022-09-03T20:25:12.949Z,20.19
2022-09-03T20:27:24.316Z,20.20
2022-09-03T20:29:44.493Z,20.19
2022-09-03T20:31:51.677Z,20.19
2022-09-03T20:34:11.902Z,20.20
2022-09-03T20:36:22.551Z,20.20
2022-09-03T20:38:43.749Z,20.19
2022-09-03T20:40:48.177Z,20.18
2022-09-03T20:43:15.089Z,20.15
2022-09-03T20:45:19.818Z,20.15
2022-09-03T20:47:49.413Z,20.14
2022-09-03T20:49:56.912Z,20.11
2022-09-03T20:52:07.420Z,20.08
2022-09-03T20:54:14.565Z,20.05
2022-09-03T20:56:22.586Z,20.03
2022-09-03T20:58:32.069Z,20.00
2022-09-03T21:00:48.106Z,19.98
2022-09-03T21:03:04.456Z,19.98
2022-09-03T21:05:16.053Z,19.98
2022-09-03T21:07:24.894Z,20.00
2022-09-03T21:09:33.540Z,20.01
2022-09-03T21:11:41.540Z,20.00
2022-09-03T21:13:51.935Z,20.01
2022-09-03T21:15:59.945Z,19.98
2022-09-03T21:18:07.966Z,19.99
2022-09-03T21:20:19.974Z,19.96
2022-09-03T21:22:30.557Z,19.93
2022-09-03T21:24:37.635Z,19.89
2022-09-03T21:26:46.096Z,19.85
2022-09-03T21:28:55.925Z,19.82
2022-09-03T21:31:00.757Z,19.79
2022-09-03T21:33:06.221Z,19.73
2022-09-03T21:35:17.326Z,19.69
2022-09-03T21:37:21.453Z,19.66
2022-09-03T21:39:28.431Z,19.64
2022-09-03T21:41:34.005Z,19.60
2022-09-03T21:43:41.000Z,19.60
2022-09-03T21:45:51.028Z,19.57
2022-09-03T21:47:58.845Z,19.56
2022-09-03T21:50:10.897Z,19.55
2022-09-03T21:52:21.322Z,19.56
2022-09-03T21:54:28.910Z,19.54
2022-09-03T21:56:57.364Z,19.53
2022-09-03T21:59:09.523Z,19.52
2022-09-03T22:01:16.340Z,19.50
2022-09-03T22:03:19.570Z,19.51
2022-09-03T22:05:22.779Z,19.51
2022-09-03T22:07:39.924Z,19.51
2022-09-03T22:09:47.030Z,19.50
2022-09-03T22:11:54.107Z,19.50
2022-09-03T22:14:04.190Z,19.48
2022-09-03T22:16:13.422Z,19.45
2022-09-03T22:18:23.912Z,19.44
2022-09-03T22:20:32.073Z,19.43
2022-09-03T22:22:44.168Z,19.42
2022-09-03T22:24:50.974Z,19.38
2022-09-03T22:26:59.247Z,19.36
2022-09-03T22:29:06.806Z,19.34
2022-09-03T22:31:16.522Z,19.30
2022-09-03T22:33:23.655Z,19.27
2022-09-03T22:35:57.605Z,19.24
2022-09-03T22:38:18.612Z,19.20
2022-09-03T22:40:25.995Z,19.19
2022-09-03T22:42:51.288Z,19.17
2022-09-03T22:45:10.186Z,19.17
2022-09-03T22:47:20.013Z,19.18
2022-09-03T22:49:33.303Z,19.19
2022-09-03T22:51:45.794Z,19.19
2022-09-03T22:54:03.846Z,19.20
2022-09-03T22:56:09.029Z,19.19
2022-09-03T22:58:15.612Z,19.15
2022-09-03T23:00:19.183Z,19.11
2022-09-03T23:02:25.267Z,19.09
2022-09-03T23:04:31.650Z,19.08
2022-09-03T23:06:38.440Z,19.04
2022-09-03T23:08:46.132Z,19.02
2022-09-03T23:11:03.805Z,18.98
2022-09-03T23:13:10.517Z,18.97
2022-09-03T23:15:17.048Z,18.99
2022-09-03T23:19:30.538Z,19.02
2022-09-03T23:21:40.463Z,19.02
2022-09-03T23:23:48.273Z,18.91
2022-09-03T23:25:54.991Z,18.83
2022-09-03T23:28:02.256Z,18.79
2022-09-03T23:30:06.379Z,18.79
2022-09-03T23:32:10.112Z,18.75
2022-09-03T23:34:13.855Z,18.73
2022-09-03T23:36:51.099Z,18.68
2022-09-03T23:38:54.603Z,18.66
2022-09-03T23:40:58.734Z,18.64
2022-09-03T23:43:17.460Z,18.63
2022-09-03T23:45:27.955Z,18.64
2022-09-03T23:47:39.600Z,18.66
2022-09-03T23:49:50.334Z,18.66
2022-09-03T23:52:11.387Z,18.68
2022-09-03T23:54:20.940Z,18.68
2022-09-03T23:56:38.558Z,18.67
2022-09-03T23:58:51.211Z,18.63
